sensor_id;sensor_type;location;lat;lon;timestamp;pressure;altitude;pressure_sealevel;temperature;humidity
28312;BME280;15572;48.810;9.148;2023-01-15T00:02:42;96970.47;;;10.20;100.00
28312;BME280;15572;48.810;9.148;2023-01-15T00:07:40;96937.91;;;10.27;100.00
28312;BME280;15572;48.810;9.148;2023-01-15T00:12:38;96929.38;;;10.30;100.00
28312;BME280;15572;48.810;9.148;2023-01-15T00:17:34;96923.34;;;10.28;100.00
28312;BME280;15572;48.810;9.148;2023-01-15T00:22:31;96920.28;;;10.24;100.00
28312;BME280;15572;48.810;9.148;2023-01-15T00:27:28;96919.59;;;10.29;100.00
28312;BME280;15572;48.810;9.148;2023-01-15T00:32:34;96908.31;;;10.32;100.00
28312;BME280;15572;48.810;9.148;2023-01-15T00:37:30;96904.50;;;10.39;100.00
28312;BME280;15572;48.810;9.148;2023-01-15T00:42:28;96889.03;;;10.46;100.00
28312;BME280;15572;48.810;9.148;2023-01-15T00:47:24;96875.34;;;10.41;100.00
28312;BME280;15572;48.810;9.148;2023-01-15T00:52:21;96885.34;;;10.41;100.00
28312;BME280;15572;48.810;9.148;2023-01-15T00:57:17;96858.88;;;10.43;100.00
28312;BME280;15572;48.810;9.148;2023-01-15T01:02:15;96849.69;;;10.44;100.00
28312;BME280;15572;48.810;9.148;2023-01-15T01:07:12;96836.03;;;10.39;100.00
28312;BME280;15572;48.810;9.148;2023-01-15T01:12:09;96835.66;;;10.35;100.00
28312;BME280;15572;48.810;9.148;2023-01-15T01:17:05;96834.00;;;10.34;100.00
28312;BME280;15572;48.810;9.148;2023-01-15T01:22:03;96842.13;;;10.34;100.00
28312;BME280;15572;48.810;9.148;2023-01-15T01:26:59;96834.16;;;10.39;100.00
28312;BME280;15572;48.810;9.148;2023-01-15T01:31:56;96852.88;;;10.41;100.00
28312;BME280;15572;48.810;9.148;2023-01-15T01:36:52;96838.88;;;10.44;100.00
28312;BME280;15572;48.810;9.148;2023-01-15T01:41:50;96833.69;;;10.42;100.00
28312;BME280;15572;48.810;9.148;2023-01-15T01:46:47;96828.53;;;10.41;100.00
28312;BME280;15572;48.810;9.148;2023-01-15T01:51:45;96807.59;;;10.48;100.00
28312;BME280;15572;48.810;9.148;2023-01-15T01:56:43;96809.22;;;10.67;100.00
28312;BME280;15572;48.810;9.148;2023-01-15T02:01:41;96806.09;;;10.82;100.00
28312;BME280;15572;48.810;9.148;2023-01-15T02:06:40;96781.63;;;10.88;100.00
28312;BME280;15572;48.810;9.148;2023-01-15T02:11:37;96786.25;;;11.11;100.00
28312;BME280;15572;48.810;9.148;2023-01-15T02:16:38;96785.44;;;11.11;100.00
28312;BME280;15572;48.810;9.148;2023-01-15T02:21:46;96760.13;;;11.28;100.00
28312;BME280;15572;48.810;9.148;2023-01-15T02:26:56;96766.84;;;11.26;100.00
28312;BME280;15572;48.810;9.148;2023-01-15T02:31:57;96766.38;;;11.29;100.00
28312;BME280;15572;48.810;9.148;2023-01-15T02:37:02;96758.34;;;11.34;100.00
28312;BME280;15572;48.810;9.148;2023-01-15T02:42:04;96763.66;;;11.29;100.00
28312;BME280;15572;48.810;9.148;2023-01-15T02:47:03;96764.59;;;11.34;100.00
28312;BME280;15572;48.810;9.148;2023-01-15T02:52:05;96763.88;;;11.27;100.00
28312;BME280;15572;48.810;9.148;2023-01-15T02:57:03;96770.47;;;11.20;100.00
28312;BME280;15572;48.810;9.148;2023-01-15T03:02:02;96759.53;;;11.15;100.00
28312;BME280;15572;48.810;9.148;2023-01-15T03:07:02;96749.84;;;11.07;100.00
28312;BME280;15572;48.810;9.148;2023-01-15T03:12:06;96742.78;;;11.06;100.00
28312;BME280;15572;48.810;9.148;2023-01-15T03:17:13;96747.75;;;11.09;100.00
28312;BME280;15572;48.810;9.148;2023-01-15T03:22:17;96737.75;;;11.21;100.00
28312;BME280;15572;48.810;9.148;2023-01-15T03:27:16;96729.59;;;11.33;100.00
28312;BME280;15572;48.810;9.148;2023-01-15T03:32:13;96729.97;;;11.36;100.00
28312;BME280;15572;48.810;9.148;2023-01-15T03:37:11;96731.03;;;11.59;100.00
28312;BME280;15572;48.810;9.148;2023-01-15T03:42:22;96717.44;;;11.70;100.00
28312;BME280;15572;48.810;9.148;2023-01-15T03:47:32;96719.22;;;11.76;100.00
28312;BME280;15572;48.810;9.148;2023-01-15T03:52:39;96713.06;;;11.81;100.00
28312;BME280;15572;48.810;9.148;2023-01-15T03:57:47;96707.31;;;11.77;100.00
28312;BME280;15572;48.810;9.148;2023-01-15T04:02:46;96724.28;;;11.85;100.00
28312;BME280;15572;48.810;9.148;2023-01-15T04:07:45;96700.66;;;11.97;100.00
28312;BME280;15572;48.810;9.148;2023-01-15T04:12:43;96695.50;;;11.95;100.00
28312;BME280;15572;48.810;9.148;2023-01-15T04:17:40;96705.28;;;11.96;100.00
28312;BME280;15572;48.810;9.148;2023-01-15T04:22:36;96686.28;;;11.96;100.00
28312;BME280;15572;48.810;9.148;2023-01-15T04:27:33;96678.50;;;12.00;100.00
28312;BME280;15572;48.810;9.148;2023-01-15T04:32:30;96692.75;;;12.07;100.00
28312;BME280;15572;48.810;9.148;2023-01-15T04:37:27;96683.38;;;12.14;100.00
28312;BME280;15572;48.810;9.148;2023-01-15T04:42:23;96677.44;;;12.01;100.00
28312;BME280;15572;48.810;9.148;2023-01-15T04:47:39;96679.53;;;11.99;100.00
28312;BME280;15572;48.810;9.148;2023-01-15T04:52:35;96665.13;;;12.10;100.00
28312;BME280;15572;48.810;9.148;2023-01-15T04:57:32;96686.38;;;12.01;100.00
28312;BME280;15572;48.810;9.148;2023-01-15T05:02:29;96686.50;;;12.06;100.00
28312;BME280;15572;48.810;9.148;2023-01-15T05:07:27;96682.84;;;12.01;100.00
28312;BME280;15572;48.810;9.148;2023-01-15T05:12:23;96693.94;;;11.99;100.00
28312;BME280;15572;48.810;9.148;2023-01-15T05:17:20;96760.59;;;11.84;100.00
28312;BME280;15572;48.810;9.148;2023-01-15T05:22:16;96780.88;;;10.40;100.00
28312;BME280;15572;48.810;9.148;2023-01-15T05:27:14;96825.31;;;9.35;100.00
28312;BME280;15572;48.810;9.148;2023-01-15T05:32:11;96822.41;;;8.80;100.00
28312;BME280;15572;48.810;9.148;2023-01-15T05:37:07;96834.22;;;8.48;100.00
28312;BME280;15572;48.810;9.148;2023-01-15T05:42:04;96823.31;;;8.23;100.00
28312;BME280;15572;48.810;9.148;2023-01-15T05:47:03;96828.97;;;8.08;100.00
28312;BME280;15572;48.810;9.148;2023-01-15T05:52:01;96823.22;;;7.91;100.00
28312;BME280;15572;48.810;9.148;2023-01-15T05:56:58;96827.00;;;7.84;100.00
28312;BME280;15572;48.810;9.148;2023-01-15T06:01:56;96834.25;;;7.77;100.00
28312;BME280;15572;48.810;9.148;2023-01-15T06:06:54;96834.31;;;7.64;100.00
28312;BME280;15572;48.810;9.148;2023-01-15T06:11:51;96838.25;;;7.61;100.00
28312;BME280;15572;48.810;9.148;2023-01-15T06:16:49;96848.63;;;7.51;100.00
28312;BME280;15572;48.810;9.148;2023-01-15T06:21:45;96851.13;;;7.46;100.00
28312;BME280;15572;48.810;9.148;2023-01-15T06:26:44;96857.34;;;7.46;100.00
28312;BME280;15572;48.810;9.148;2023-01-15T06:31:41;96868.09;;;7.40;100.00
28312;BME280;15572;48.810;9.148;2023-01-15T06:36:37;96890.69;;;7.26;100.00
28312;BME280;15572;48.810;9.148;2023-01-15T06:41:34;96906.63;;;7.14;100.00
28312;BME280;15572;48.810;9.148;2023-01-15T06:46:50;96911.97;;;7.01;100.00
28312;BME280;15572;48.810;9.148;2023-01-15T06:52:04;96922.72;;;6.88;100.00
28312;BME280;15572;48.810;9.148;2023-01-15T06:57:01;96937.97;;;6.74;100.00
28312;BME280;15572;48.810;9.148;2023-01-15T07:01:59;96955.31;;;6.58;100.00
28312;BME280;15572;48.810;9.148;2023-01-15T07:06:55;96963.72;;;6.42;100.00
28312;BME280;15572;48.810;9.148;2023-01-15T07:11:52;96997.59;;;6.30;100.00
28312;BME280;15572;48.810;9.148;2023-01-15T07:16:49;97009.72;;;6.19;100.00
28312;BME280;15572;48.810;9.148;2023-01-15T07:21:47;97004.25;;;6.06;100.00
28312;BME280;15572;48.810;9.148;2023-01-15T07:26:44;97008.75;;;5.99;100.00
28312;BME280;15572;48.810;9.148;2023-01-15T07:31:41;97021.09;;;5.93;100.00
28312;BME280;15572;48.810;9.148;2023-01-15T07:36:37;97028.53;;;5.91;100.00
28312;BME280;15572;48.810;9.148;2023-01-15T07:41:35;97024.28;;;5.82;100.00
28312;BME280;15572;48.810;9.148;2023-01-15T07:46:49;97015.78;;;5.79;100.00
28312;BME280;15572;48.810;9.148;2023-01-15T07:52:03;97022.97;;;5.72;100.00
28312;BME280;15572;48.810;9.148;2023-01-15T07:57:01;97055.97;;;5.66;100.00
28312;BME280;15572;48.810;9.148;2023-01-15T08:01:59;97067.16;;;5.69;100.00
28312;BME280;15572;48.810;9.148;2023-01-15T08:06:58;97065.66;;;5.67;100.00
28312;BME280;15572;48.810;9.148;2023-01-15T08:11:54;97090.06;;;5.65;100.00
28312;BME280;15572;48.810;9.148;2023-01-15T08:17:18;97101.03;;;5.70;100.00
28312;BME280;15572;48.810;9.148;2023-01-15T08:22:15;97094.50;;;5.79;100.00
28312;BME280;15572;48.810;9.148;2023-01-15T08:27:11;97094.69;;;5.78;100.00
28312;BME280;15572;48.810;9.148;2023-01-15T08:32:09;97097.78;;;5.75;100.00
28312;BME280;15572;48.810;9.148;2023-01-15T08:37:07;97116.00;;;5.79;100.00
28312;BME280;15572;48.810;9.148;2023-01-15T08:42:04;97114.06;;;5.73;100.00
28312;BME280;15572;48.810;9.148;2023-01-15T08:47:01;97116.75;;;5.73;100.00
28312;BME280;15572;48.810;9.148;2023-01-15T08:51:57;97137.81;;;5.70;100.00
28312;BME280;15572;48.810;9.148;2023-01-15T08:56:57;97150.31;;;5.63;100.00
28312;BME280;15572;48.810;9.148;2023-01-15T09:01:54;97162.91;;;5.62;100.00
28312;BME280;15572;48.810;9.148;2023-01-15T09:06:51;97185.16;;;5.56;100.00
28312;BME280;15572;48.810;9.148;2023-01-15T09:11:47;97176.84;;;5.51;100.00
28312;BME280;15572;48.810;9.148;2023-01-15T09:16:45;97169.00;;;5.49;100.00
28312;BME280;15572;48.810;9.148;2023-01-15T09:21:42;97200.38;;;5.49;100.00
28312;BME280;15572;48.810;9.148;2023-01-15T09:26:38;97204.34;;;5.53;100.00
28312;BME280;15572;48.810;9.148;2023-01-15T09:31:35;97248.13;;;5.54;100.00
28312;BME280;15572;48.810;9.148;2023-01-15T09:36:33;97257.47;;;5.58;100.00
28312;BME280;15572;48.810;9.148;2023-01-15T09:41:44;97249.06;;;5.61;100.00
28312;BME280;15572;48.810;9.148;2023-01-15T09:47:07;97239.78;;;5.63;100.00
28312;BME280;15572;48.810;9.148;2023-01-15T09:52:11;97245.13;;;5.63;100.00
28312;BME280;15572;48.810;9.148;2023-01-15T09:57:12;97268.66;;;5.61;100.00
28312;BME280;15572;48.810;9.148;2023-01-15T10:02:19;97276.69;;;5.61;100.00
28312;BME280;15572;48.810;9.148;2023-01-15T10:07:22;97304.41;;;5.47;100.00
28312;BME280;15572;48.810;9.148;2023-01-15T10:12:25;97291.19;;;5.31;100.00
28312;BME280;15572;48.810;9.148;2023-01-15T10:17:36;97292.28;;;5.22;100.00
28312;BME280;15572;48.810;9.148;2023-01-15T10:22:47;97302.75;;;5.17;100.00
28312;BME280;15572;48.810;9.148;2023-01-15T10:27:49;97320.59;;;5.09;100.00
28312;BME280;15572;48.810;9.148;2023-01-15T10:32:50;97326.88;;;5.02;100.00
28312;BME280;15572;48.810;9.148;2023-01-15T10:37:53;97339.91;;;4.90;100.00
28312;BME280;15572;48.810;9.148;2023-01-15T10:42:57;97337.97;;;4.76;100.00
28312;BME280;15572;48.810;9.148;2023-01-15T10:47:59;97348.63;;;4.70;100.00
28312;BME280;15572;48.810;9.148;2023-01-15T10:53:03;97356.88;;;4.60;100.00
28312;BME280;15572;48.810;9.148;2023-01-15T10:58:06;97379.81;;;4.40;100.00
28312;BME280;15572;48.810;9.148;2023-01-15T11:03:11;97355.31;;;4.20;100.00
28312;BME280;15572;48.810;9.148;2023-01-15T11:08:14;97351.69;;;4.13;100.00
28312;BME280;15572;48.810;9.148;2023-01-15T11:13:19;97388.72;;;4.09;100.00
28312;BME280;15572;48.810;9.148;2023-01-15T11:18:36;97389.94;;;3.99;100.00
28312;BME280;15572;48.810;9.148;2023-01-15T11:23:55;97387.81;;;3.86;100.00
28312;BME280;15572;48.810;9.148;2023-01-15T11:28:53;97401.56;;;3.75;100.00
28312;BME280;15572;48.810;9.148;2023-01-15T11:33:57;97410.81;;;3.64;100.00
28312;BME280;15572;48.810;9.148;2023-01-15T11:38:56;97409.13;;;3.63;100.00
28312;BME280;15572;48.810;9.148;2023-01-15T11:43:54;97402.13;;;3.54;100.00
28312;BME280;15572;48.810;9.148;2023-01-15T11:49:09;97390.28;;;3.49;100.00
28312;BME280;15572;48.810;9.148;2023-01-15T11:54:36;97390.25;;;3.57;100.00
28312;BME280;15572;48.810;9.148;2023-01-15T11:59:34;97408.50;;;3.53;100.00
28312;BME280;15572;48.810;9.148;2023-01-15T12:04:35;97394.63;;;3.50;100.00
28312;BME280;15572;48.810;9.148;2023-01-15T12:09:47;97402.81;;;3.56;100.00
28312;BME280;15572;48.810;9.148;2023-01-15T12:15:01;97399.78;;;3.59;100.00
28312;BME280;15572;48.810;9.148;2023-01-15T12:20:12;97403.97;;;3.62;100.00
28312;BME280;15572;48.810;9.148;2023-01-15T12:25:32;97407.81;;;3.59;100.00
28312;BME280;15572;48.810;9.148;2023-01-15T12:30:50;97406.59;;;3.70;100.00
28312;BME280;15572;48.810;9.148;2023-01-15T12:35:56;97378.97;;;3.77;100.00
28312;BME280;15572;48.810;9.148;2023-01-15T12:40:58;97375.78;;;3.82;100.00
28312;BME280;15572;48.810;9.148;2023-01-15T12:45:58;97385.47;;;3.83;100.00
28312;BME280;15572;48.810;9.148;2023-01-15T12:50:58;97388.63;;;3.95;100.00
28312;BME280;15572;48.810;9.148;2023-01-15T12:56:03;97392.63;;;3.99;100.00
28312;BME280;15572;48.810;9.148;2023-01-15T13:01:06;97406.78;;;4.07;100.00
28312;BME280;15572;48.810;9.148;2023-01-15T13:06:06;97412.47;;;4.12;100.00
28312;BME280;15572;48.810;9.148;2023-01-15T13:11:05;97416.78;;;4.21;100.00
28312;BME280;15572;48.810;9.148;2023-01-15T13:16:17;97421.38;;;4.36;100.00
28312;BME280;15572;48.810;9.148;2023-01-15T13:21:16;97434.00;;;4.27;100.00
28312;BME280;15572;48.810;9.148;2023-01-15T13:26:23;97423.75;;;4.31;100.00
28312;BME280;15572;48.810;9.148;2023-01-15T13:31:42;97422.75;;;4.32;100.00
28312;BME280;15572;48.810;9.148;2023-01-15T13:36:45;97448.03;;;4.37;100.00
28312;BME280;15572;48.810;9.148;2023-01-15T13:41:46;97450.31;;;4.48;100.00
28312;BME280;15572;48.810;9.148;2023-01-15T13:47:04;97456.56;;;5.09;100.00
28312;BME280;15572;48.810;9.148;2023-01-15T13:52:03;97454.00;;;5.38;100.00
28312;BME280;15572;48.810;9.148;2023-01-15T13:57:21;97459.00;;;6.23;95.87
28312;BME280;15572;48.810;9.148;2023-01-15T14:02:23;97447.66;;;6.78;88.91
28312;BME280;15572;48.810;9.148;2023-01-15T14:07:29;97459.59;;;6.54;82.70
28312;BME280;15572;48.810;9.148;2023-01-15T14:12:38;97455.56;;;6.65;82.84
28312;BME280;15572;48.810;9.148;2023-01-15T14:18:04;97468.97;;;6.44;82.46
28312;BME280;15572;48.810;9.148;2023-01-15T14:23:20;97456.59;;;6.13;81.13
28312;BME280;15572;48.810;9.148;2023-01-15T14:28:41;97462.16;;;5.97;81.65
28312;BME280;15572;48.810;9.148;2023-01-15T14:33:53;97477.13;;;5.77;82.25
28312;BME280;15572;48.810;9.148;2023-01-15T14:38:56;97467.66;;;5.66;84.06
28312;BME280;15572;48.810;9.148;2023-01-15T14:43:56;97468.44;;;5.52;85.35
28312;BME280;15572;48.810;9.148;2023-01-15T14:48:54;97462.03;;;5.38;87.60
28312;BME280;15572;48.810;9.148;2023-01-15T14:53:52;97461.75;;;5.33;88.30
28312;BME280;15572;48.810;9.148;2023-01-15T14:58:56;97459.31;;;5.24;88.01
28312;BME280;15572;48.810;9.148;2023-01-15T15:03:57;97472.94;;;5.22;87.95
28312;BME280;15572;48.810;9.148;2023-01-15T15:08:59;97473.63;;;5.16;88.08
28312;BME280;15572;48.810;9.148;2023-01-15T15:13:59;97481.84;;;5.15;88.25
28312;BME280;15572;48.810;9.148;2023-01-15T15:18:59;97477.75;;;5.04;88.33
28312;BME280;15572;48.810;9.148;2023-01-15T15:24:04;97497.31;;;5.13;88.37
28312;BME280;15572;48.810;9.148;2023-01-15T15:29:05;97512.16;;;5.00;89.23
28312;BME280;15572;48.810;9.148;2023-01-15T15:34:03;97512.88;;;4.94;89.52
28312;BME280;15572;48.810;9.148;2023-01-15T15:39:04;97508.34;;;4.95;89.18
28312;BME280;15572;48.810;9.148;2023-01-15T15:44:15;97506.00;;;4.92;89.05
28312;BME280;15572;48.810;9.148;2023-01-15T15:49:37;97494.84;;;4.80;91.20
28312;BME280;15572;48.810;9.148;2023-01-15T15:54:34;97485.53;;;4.68;92.62
28312;BME280;15572;48.810;9.148;2023-01-15T15:59:33;97481.72;;;4.62;93.06
28312;BME280;15572;48.810;9.148;2023-01-15T16:04:30;97468.69;;;4.51;95.10
28312;BME280;15572;48.810;9.148;2023-01-15T16:09:28;97470.06;;;4.47;95.07
28312;BME280;15572;48.810;9.148;2023-01-15T16:14:25;97474.59;;;4.47;94.76
28312;BME280;15572;48.810;9.148;2023-01-15T16:19:25;97479.97;;;4.39;94.90
28312;BME280;15572;48.810;9.148;2023-01-15T16:24:26;97484.09;;;4.27;96.39
28312;BME280;15572;48.810;9.148;2023-01-15T16:29:25;97489.94;;;4.22;97.45
28312;BME280;15572;48.810;9.148;2023-01-15T16:34:25;97481.41;;;4.18;98.05
28312;BME280;15572;48.810;9.148;2023-01-15T16:39:25;97476.94;;;4.11;98.69
28312;BME280;15572;48.810;9.148;2023-01-15T16:44:32;97475.13;;;4.03;99.65
28312;BME280;15572;48.810;9.148;2023-01-15T16:49:32;97481.31;;;3.96;100.00
28312;BME280;15572;48.810;9.148;2023-01-15T16:54:43;97475.66;;;3.91;100.00
28312;BME280;15572;48.810;9.148;2023-01-15T16:59:57;97473.16;;;3.89;100.00
28312;BME280;15572;48.810;9.148;2023-01-15T17:04:57;97465.66;;;3.85;100.00
28312;BME280;15572;48.810;9.148;2023-01-15T17:09:55;97458.09;;;3.80;100.00
28312;BME280;15572;48.810;9.148;2023-01-15T17:14:53;97464.13;;;3.82;100.00
28312;BME280;15572;48.810;9.148;2023-01-15T17:19:51;97464.13;;;3.82;100.00
28312;BME280;15572;48.810;9.148;2023-01-15T17:24:53;97466.66;;;3.75;100.00
28312;BME280;15572;48.810;9.148;2023-01-15T17:29:50;97451.28;;;3.69;100.00
28312;BME280;15572;48.810;9.148;2023-01-15T17:34:46;97436.56;;;3.73;100.00
28312;BME280;15572;48.810;9.148;2023-01-15T17:39:43;97423.34;;;3.72;100.00
28312;BME280;15572;48.810;9.148;2023-01-15T17:44:41;97422.97;;;3.75;100.00
28312;BME280;15572;48.810;9.148;2023-01-15T17:49:38;97415.63;;;3.77;100.00
28312;BME280;15572;48.810;9.148;2023-01-15T17:54:35;97424.66;;;3.76;100.00
28312;BME280;15572;48.810;9.148;2023-01-15T17:59:50;97407.28;;;3.72;100.00
28312;BME280;15572;48.810;9.148;2023-01-15T18:05:07;97408.59;;;3.76;100.00
28312;BME280;15572;48.810;9.148;2023-01-15T18:10:24;97406.75;;;3.85;100.00
28312;BME280;15572;48.810;9.148;2023-01-15T18:15:23;97400.88;;;3.81;100.00
28312;BME280;15572;48.810;9.148;2023-01-15T18:20:19;97390.84;;;3.83;100.00
28312;BME280;15572;48.810;9.148;2023-01-15T18:25:16;97379.91;;;3.93;100.00
28312;BME280;15572;48.810;9.148;2023-01-15T18:30:14;97367.69;;;3.90;99.85
28312;BME280;15572;48.810;9.148;2023-01-15T18:35:12;97365.53;;;3.86;100.00
28312;BME280;15572;48.810;9.148;2023-01-15T18:40:10;97355.88;;;3.85;100.00
28312;BME280;15572;48.810;9.148;2023-01-15T18:45:07;97359.03;;;3.88;99.80
28312;BME280;15572;48.810;9.148;2023-01-15T18:50:24;97358.19;;;3.88;99.73
28312;BME280;15572;48.810;9.148;2023-01-15T18:55:21;97364.50;;;3.95;98.30
28312;BME280;15572;48.810;9.148;2023-01-15T19:00:20;97348.31;;;3.88;99.12
28312;BME280;15572;48.810;9.148;2023-01-15T19:05:17;97358.19;;;3.88;98.67
28312;BME280;15572;48.810;9.148;2023-01-15T19:10:16;97371.88;;;3.93;97.64
28312;BME280;15572;48.810;9.148;2023-01-15T19:15:14;97343.72;;;3.97;96.43
28312;BME280;15572;48.810;9.148;2023-01-15T19:20:29;97355.44;;;3.96;96.61
28312;BME280;15572;48.810;9.148;2023-01-15T19:25:29;97340.91;;;3.90;96.66
28312;BME280;15572;48.810;9.148;2023-01-15T19:30:27;97330.34;;;3.97;94.60
28312;BME280;15572;48.810;9.148;2023-01-15T19:35:26;97308.13;;;3.88;95.51
28312;BME280;15572;48.810;9.148;2023-01-15T19:40:30;97299.09;;;3.89;94.65
28312;BME280;15572;48.810;9.148;2023-01-15T19:45:32;97305.63;;;3.87;94.19
28312;BME280;15572;48.810;9.148;2023-01-15T19:55:45;97322.16;;;3.90;93.62
28312;BME280;15572;48.810;9.148;2023-01-15T20:00:43;97301.13;;;3.87;93.49
28312;BME280;15572;48.810;9.148;2023-01-15T20:05:43;97297.44;;;3.88;93.29
28312;BME280;15572;48.810;9.148;2023-01-15T20:10:42;97295.81;;;3.79;93.93
28312;BME280;15572;48.810;9.148;2023-01-15T20:15:42;97281.41;;;3.80;92.85
28312;BME280;15572;48.810;9.148;2023-01-15T20:20:39;97272.50;;;3.88;91.35
28312;BME280;15572;48.810;9.148;2023-01-15T20:25:37;97262.72;;;3.72;92.78
28312;BME280;15572;48.810;9.148;2023-01-15T20:30:33;97263.88;;;3.69;92.44
28312;BME280;15572;48.810;9.148;2023-01-15T20:35:31;97253.88;;;3.63;92.49
28312;BME280;15572;48.810;9.148;2023-01-15T20:40:27;97242.06;;;3.58;93.15
28312;BME280;15572;48.810;9.148;2023-01-15T20:45:24;97227.34;;;3.54;93.56
28312;BME280;15572;48.810;9.148;2023-01-15T20:50:22;97233.06;;;3.51;93.64
28312;BME280;15572;48.810;9.148;2023-01-15T20:55:21;97215.63;;;3.55;93.64
28312;BME280;15572;48.810;9.148;2023-01-15T21:00:20;97216.47;;;3.55;92.59
28312;BME280;15572;48.810;9.148;2023-01-15T21:05:17;97219.84;;;3.49;93.46
28312;BME280;15572;48.810;9.148;2023-01-15T21:10:14;97207.00;;;3.45;93.76
28312;BME280;15572;48.810;9.148;2023-01-15T21:15:12;97212.72;;;3.42;93.77
28312;BME280;15572;48.810;9.148;2023-01-15T21:20:11;97209.72;;;3.36;94.31
28312;BME280;15572;48.810;9.148;2023-01-15T21:25:08;97211.44;;;3.21;96.17
28312;BME280;15572;48.810;9.148;2023-01-15T21:30:06;97199.59;;;3.16;96.85
28312;BME280;15572;48.810;9.148;2023-01-15T21:35:05;97214.19;;;3.05;98.22
28312;BME280;15572;48.810;9.148;2023-01-15T21:40:02;97212.22;;;2.99;98.81
28312;BME280;15572;48.810;9.148;2023-01-15T21:44:59;97201.56;;;2.91;99.16
28312;BME280;15572;48.810;9.148;2023-01-15T21:49:56;97198.09;;;2.82;100.00
28312;BME280;15572;48.810;9.148;2023-01-15T21:54:54;97188.06;;;2.76;99.87
28312;BME280;15572;48.810;9.148;2023-01-15T21:59:51;97187.06;;;2.69;100.00
28312;BME280;15572;48.810;9.148;2023-01-15T22:04:48;97179.94;;;2.62;100.00
28312;BME280;15572;48.810;9.148;2023-01-15T22:09:45;97172.25;;;2.59;100.00
28312;BME280;15572;48.810;9.148;2023-01-15T22:14:42;97158.91;;;2.50;100.00
28312;BME280;15572;48.810;9.148;2023-01-15T22:19:39;97158.59;;;2.45;100.00
28312;BME280;15572;48.810;9.148;2023-01-15T22:24:37;97166.63;;;2.45;100.00
28312;BME280;15572;48.810;9.148;2023-01-15T22:29:36;97151.59;;;2.44;100.00
28312;BME280;15572;48.810;9.148;2023-01-15T22:34:34;97135.25;;;2.39;100.00
28312;BME280;15572;48.810;9.148;2023-01-15T22:39:31;97128.06;;;2.40;100.00
28312;BME280;15572;48.810;9.148;2023-01-15T22:44:28;97122.88;;;2.38;100.00
28312;BME280;15572;48.810;9.148;2023-01-15T22:49:25;97105.53;;;2.34;100.00
28312;BME280;15572;48.810;9.148;2023-01-15T22:54:23;97107.88;;;2.29;100.00
28312;BME280;15572;48.810;9.148;2023-01-15T22:59:20;97095.19;;;2.31;100.00
28312;BME280;15572;48.810;9.148;2023-01-15T23:04:19;97075.84;;;2.29;100.00
28312;BME280;15572;48.810;9.148;2023-01-15T23:09:17;97068.81;;;2.28;100.00
28312;BME280;15572;48.810;9.148;2023-01-15T23:14:16;97064.13;;;2.30;100.00
28312;BME280;15572;48.810;9.148;2023-01-15T23:19:14;97058.97;;;2.29;100.00
28312;BME280;15572;48.810;9.148;2023-01-15T23:24:10;97047.78;;;2.33;100.00
28312;BME280;15572;48.810;9.148;2023-01-15T23:29:07;97047.09;;;2.31;100.00
28312;BME280;15572;48.810;9.148;2023-01-15T23:34:05;97046.56;;;2.36;99.46
28312;BME280;15572;48.810;9.148;2023-01-15T23:39:02;97039.41;;;2.36;99.11
28312;BME280;15572;48.810;9.148;2023-01-15T23:43:58;97038.88;;;2.41;98.03
28312;BME280;15572;48.810;9.148;2023-01-15T23:49:14;97033.22;;;2.44;97.67
28312;BME280;15572;48.810;9.148;2023-01-15T23:54:12;97024.00;;;2.46;97.07
28312;BME280;15572;48.810;9.148;2023-01-15T23:59:09;97006.88;;;2.64;95.92
